Time;durP1;ratioP1;P1;durP2;ratioP2;P2;SDS_P1;SDS_P2;PMS_P1;PMS_P2;Temp;Humidity;BMP_temperature;BMP_pressure;BME280_temperature;BME280_humidity;BME280_pressure;Samples;Min_cycle;Max_cycle;Signal;HPM_P1;HPM_P2
2022/12/05 00:01:38;;;;;;;38.42;24.90;;;4.10;99.90;;;;;;5065650;28;20056;-73
2022/12/05 00:04:10;;;;;;;44.17;26.30;;;4.20;99.90;;;;;;5049390;28;20061;-72
2022/12/05 00:06:38;;;;;;;39.75;26.38;;;4.20;99.90;;;;;;5064100;28;20743;-73
2022/12/05 00:09:06;;;;;;;39.00;26.55;;;4.20;99.90;;;;;;5063821;28;20044;-73
2022/12/05 00:11:34;;;;;;;38.97;26.05;;;4.20;99.90;;;;;;5063552;28;20039;-72
2022/12/05 00:14:01;;;;;;;40.58;25.15;;;4.20;99.90;;;;;;5051248;28;20101;-73
2022/12/05 00:16:29;;;;;;;37.10;23.70;;;4.20;99.90;;;;;;5069776;28;20631;-72
2022/12/05 00:18:55;;;;;;;38.47;23.92;;;4.20;99.90;;;;;;5068937;28;20068;-73
2022/12/05 00:21:23;;;;;;;34.83;22.75;;;4.20;99.90;;;;;;5067244;28;20041;-73
2022/12/05 00:23:51;;;;;;;36.95;24.70;;;4.20;99.90;;;;;;5053935;28;20549;-73
2022/12/05 00:26:16;;;;;;;37.75;24.05;;;4.20;99.90;;;;;;5068433;28;20658;-72
2022/12/05 00:28:42;;;;;;;36.40;23.65;;;4.30;99.90;;;;;;5052532;28;20049;-73
2022/12/05 00:31:11;;;;;;;34.53;23.75;;;4.20;99.90;;;;;;5083087;28;20044;-72
2022/12/05 00:33:37;;;;;;;38.38;25.27;;;4.30;99.90;;;;;;5083736;28;20044;-72
2022/12/05 00:36:15;;;;;;;34.95;23.40;;;4.30;99.90;;;;;;5067737;28;20032;-73
2022/12/05 00:38:41;;;;;;;34.47;23.27;;;4.30;99.90;;;;;;5057683;28;20047;-73
2022/12/05 00:41:09;;;;;;;32.60;22.60;;;4.30;99.90;;;;;;5075824;28;20053;-73
2022/12/05 00:43:35;;;;;;;34.95;23.27;;;4.30;99.90;;;;;;5067581;28;20677;-73
2022/12/05 00:46:05;;;;;;;33.30;22.17;;;4.30;99.90;;;;;;5056988;28;20123;-73
2022/12/05 00:48:31;;;;;;;33.33;22.45;;;4.40;99.90;;;;;;5062848;28;20410;-73
2022/12/05 00:51:06;;;;;;;33.28;23.25;;;4.40;99.90;;;;;;5054016;28;20048;-72
2022/12/05 00:53:32;;;;;;;33.88;23.15;;;4.40;99.90;;;;;;5069257;28;20519;-73
2022/12/05 00:56:08;;;;;;;33.65;22.65;;;4.40;99.90;;;;;;5097976;28;20094;-72
2022/12/05 00:58:34;;;;;;;36.78;24.48;;;4.40;99.90;;;;;;5061959;28;20463;-73
2022/12/05 01:01:08;;;;;;;38.85;24.70;;;4.40;99.90;;;;;;5080055;28;20556;-73
2022/12/05 01:03:34;;;;;;;34.47;23.70;;;4.50;99.90;;;;;;5088303;28;20090;-72
2022/12/05 01:06:00;;;;;;;35.08;24.90;;;4.50;99.90;;;;;;5065468;28;20044;-73
2022/12/05 01:08:26;;;;;;;38.47;25.90;;;4.50;99.90;;;;;;5064815;28;20044;-72
2022/12/05 01:10:56;;;;;;;36.30;25.08;;;4.50;99.90;;;;;;5064963;28;20044;-72
2022/12/05 01:13:23;;;;;;;35.35;24.58;;;4.50;99.90;;;;;;5064572;28;20036;-73
2022/12/05 01:15:49;;;;;;;37.90;27.70;;;4.50;99.90;;;;;;5061493;28;20040;-72
2022/12/05 01:18:15;;;;;;;41.75;27.15;;;4.50;99.90;;;;;;5068207;28;20048;-73
2022/12/05 01:20:41;;;;;;;42.08;27.95;;;4.50;99.90;;;;;;5067348;28;20040;-72
2022/12/05 01:23:07;;;;;;;39.05;27.52;;;4.50;99.90;;;;;;5068864;28;20550;-73
2022/12/05 01:25:40;;;;;;;39.20;27.20;;;4.50;99.90;;;;;;5064538;28;20044;-72
2022/12/05 01:28:06;;;;;;;38.58;27.25;;;4.50;99.90;;;;;;5052948;28;20423;-73
2022/12/05 01:30:32;;;;;;;40.55;27.17;;;4.50;99.90;;;;;;5052411;28;20108;-73
2022/12/05 01:32:58;;;;;;;42.33;28.15;;;4.50;99.90;;;;;;5061501;28;20053;-72
2022/12/05 01:35:24;;;;;;;42.55;28.98;;;4.50;99.90;;;;;;5048408;28;20052;-73
2022/12/05 01:37:50;;;;;;;38.13;26.08;;;4.50;99.90;;;;;;5101069;28;20041;-73
2022/12/05 01:40:16;;;;;;;40.58;28.73;;;4.50;99.90;;;;;;5066629;28;20041;-73
2022/12/05 01:42:42;;;;;;;42.63;29.73;;;4.50;99.90;;;;;;5070314;28;20055;-73
2022/12/05 01:45:31;;;;;;;43.00;27.60;;;4.50;99.90;;;;;;5065891;28;20041;-73
2022/12/05 01:47:57;;;;;;;38.65;27.77;;;4.60;99.90;;;;;;5064289;28;20055;-73
2022/12/05 01:50:22;;;;;;;43.47;28.25;;;4.60;99.90;;;;;;5065845;28;20094;-73
2022/12/05 01:52:48;;;;;;;41.30;27.98;;;4.60;99.90;;;;;;5065206;28;20052;-73
2022/12/05 01:55:16;;;;;;;40.00;27.55;;;4.60;99.90;;;;;;5054729;28;20056;-73
2022/12/05 01:57:44;;;;;;;40.40;28.55;;;4.60;99.90;;;;;;5055870;28;20061;-73
2022/12/05 02:00:12;;;;;;;;;;;4.60;99.90;;;;;;5065730;28;20083;-73
2022/12/05 02:02:40;;;;;;;38.20;26.38;;;4.50;99.90;;;;;;5063311;28;19925;-73
2022/12/05 02:05:22;;;;;;;40.70;27.13;;;4.60;99.90;;;;;;5052379;28;20086;-73
2022/12/05 02:07:48;;;;;;;45.33;29.92;;;4.60;99.90;;;;;;5051261;28;20052;-72
2022/12/05 02:10:14;;;;;;;41.42;28.02;;;4.60;99.90;;;;;;5091243;28;20045;-72
2022/12/05 02:12:40;;;;;;;42.97;29.88;;;4.60;99.90;;;;;;5049842;28;20048;-72
2022/12/05 02:15:21;;;;;;;41.33;28.77;;;4.60;99.90;;;;;;5048788;28;20752;-73
2022/12/05 02:18:07;;;;;;;41.33;28.42;;;4.60;99.90;;;;;;5055726;28;20601;-73
2022/12/05 02:20:46;;;;;;;43.97;28.48;;;4.60;99.90;;;;;;5048981;28;20041;-73
2022/12/05 02:23:34;;;;;;;44.75;29.52;;;4.60;99.90;;;;;;5065744;28;20074;-72
2022/12/05 02:26:19;;;;;;;43.53;29.77;;;4.60;99.90;;;;;;5063246;28;20123;-72
2022/12/05 02:29:19;;;;;;;47.03;29.98;;;4.60;99.90;;;;;;5057174;28;20045;-73
2022/12/05 02:31:52;;;;;;;45.22;30.02;;;4.60;99.90;;;;;;5076341;28;20044;-72
2022/12/05 02:34:25;;;;;;;44.75;29.15;;;4.60;99.90;;;;;;5066774;28;20082;-72
2022/12/05 02:37:04;;;;;;;41.20;29.35;;;4.60;99.90;;;;;;5064193;28;20167;-73
2022/12/05 02:39:59;;;;;;;39.97;28.70;;;4.60;99.90;;;;;;5056433;28;20417;-72
2022/12/05 02:42:36;;;;;;;45.15;29.67;;;4.60;99.90;;;;;;5065356;28;20032;-73
2022/12/05 02:45:08;;;;;;;43.00;30.00;;;4.60;99.90;;;;;;5050714;28;20111;-73
2022/12/05 02:47:43;;;;;;;44.55;29.05;;;4.60;99.90;;;;;;5067366;28;20036;-72
2022/12/05 02:50:13;;;;;;;44.80;28.98;;;4.60;99.90;;;;;;5066013;28;20755;-73
2022/12/05 02:52:39;;;;;;;41.35;28.98;;;4.60;99.90;;;;;;5064587;28;20048;-72
2022/12/05 02:55:07;;;;;;;42.20;28.63;;;4.70;99.90;;;;;;5063663;28;20108;-73
2022/12/05 02:57:35;;;;;;;44.63;30.23;;;4.70;99.90;;;;;;5053120;28;20530;-73
2022/12/05 03:00:01;;;;;;;45.22;29.10;;;4.70;99.90;;;;;;5088002;28;20438;-73
2022/12/05 03:02:30;;;;;;;45.20;30.17;;;4.70;99.90;;;;;;5063658;28;20458;-72
2022/12/05 03:05:19;;;;;;;41.42;27.65;;;4.70;99.90;;;;;;5062774;28;20073;-72
2022/12/05 03:07:47;;;;;;;43.53;29.23;;;4.80;99.90;;;;;;5068399;28;20048;-73
2022/12/05 03:10:16;;;;;;;40.45;28.73;;;4.70;99.90;;;;;;5064975;28;20048;-72
2022/12/05 03:12:48;;;;;;;44.67;29.52;;;4.80;99.90;;;;;;5060609;28;20132;-73
2022/12/05 03:15:37;;;;;;;41.65;28.83;;;4.80;99.90;;;;;;5063628;28;20040;-74
2022/12/05 03:18:11;;;;;;;41.80;28.10;;;4.80;99.90;;;;;;5065056;28;20072;-73
2022/12/05 03:20:49;;;;;;;40.78;26.88;;;4.80;99.90;;;;;;5065618;28;20131;-73
2022/12/05 03:23:22;;;;;;;44.53;29.70;;;4.80;99.90;;;;;;5064076;28;20163;-73
2022/12/05 03:26:00;;;;;;;42.63;29.20;;;4.80;99.90;;;;;;5062272;28;20511;-73
2022/12/05 03:28:38;;;;;;;42.25;28.35;;;4.80;99.90;;;;;;5059072;28;20041;-71
2022/12/05 03:31:11;;;;;;;43.20;29.15;;;4.80;99.90;;;;;;5059483;28;20046;-73
2022/12/05 03:33:43;;;;;;;42.28;27.85;;;4.80;99.90;;;;;;5061675;28;20093;-72
2022/12/05 03:36:19;;;;;;;44.88;29.83;;;4.80;99.90;;;;;;5057902;28;20036;-73
2022/12/05 03:38:52;;;;;;;43.17;28.45;;;4.80;99.90;;;;;;5080275;28;20052;-72
2022/12/05 03:41:24;;;;;;;42.03;27.05;;;4.80;99.90;;;;;;5065125;28;20095;-72
2022/12/05 03:43:58;;;;;;;41.75;27.70;;;4.80;99.90;;;;;;5058896;28;20070;-72
2022/12/05 03:46:31;;;;;;;41.85;29.02;;;4.80;99.90;;;;;;5054697;28;20054;-72
2022/12/05 03:49:15;;;;;;;41.17;27.80;;;4.80;99.90;;;;;;5064275;28;20056;-73
2022/12/05 03:52:13;;;;;;;40.45;26.10;;;4.90;99.90;;;;;;5049306;28;20143;-73
2022/12/05 03:54:48;;;;;;;41.63;27.40;;;4.90;99.90;;;;;;5056107;28;20046;-72
2022/12/05 03:57:20;;;;;;;42.40;27.63;;;4.90;99.90;;;;;;5061192;28;20089;-73
2022/12/05 03:59:57;;;;;;;42.00;27.50;;;4.90;99.90;;;;;;5067087;28;20045;-73
2022/12/05 04:02:51;;;;;;;42.10;27.40;;;4.90;99.90;;;;;;5054581;28;20072;-72
2022/12/05 04:05:22;;;;;;;40.50;27.33;;;4.90;99.90;;;;;;5056965;28;20052;-72
2022/12/05 04:07:59;;;;;;;41.72;28.67;;;4.90;99.90;;;;;;5063671;28;20067;-72
2022/12/05 04:10:31;;;;;;;38.78;26.25;;;4.90;99.90;;;;;;5065688;28;20052;-72
2022/12/05 04:13:16;;;;;;;41.28;27.80;;;4.90;99.90;;;;;;5063111;28;20102;-71
2022/12/05 04:18:35;;;;;;;42.40;27.30;;;4.80;99.90;;;;;;5054023;28;20475;-72
2022/12/05 04:25:31;;;;;;;47.63;28.23;;;4.90;99.90;;;;;;5056256;28;20513;-72
2022/12/05 04:26:39;;;;;;;43.75;27.98;;;4.90;99.90;;;;;;5062607;28;20045;-73
2022/12/05 04:29:15;;;;;;;43.45;28.30;;;4.90;99.90;;;;;;5060633;28;20080;-73
2022/12/05 04:31:42;;;;;;;43.10;28.15;;;4.90;99.90;;;;;;5049340;28;20052;-73
2022/12/05 04:34:13;;;;;;;47.33;29.58;;;5.00;99.90;;;;;;5054280;28;20041;-73
2022/12/05 04:37:07;;;;;;;44.70;29.00;;;4.90;99.90;;;;;;5065867;28;20050;-73
2022/12/05 04:39:40;;;;;;;44.25;28.40;;;4.90;99.90;;;;;;5063919;28;20161;-72
2022/12/05 04:42:14;;;;;;;44.28;28.98;;;4.90;99.90;;;;;;5063904;28;20111;-73
2022/12/05 04:44:56;;;;;;;46.08;28.90;;;4.90;99.90;;;;;;5060987;28;20051;-73
2022/12/05 04:47:28;;;;;;;49.30;29.58;;;4.90;99.90;;;;;;5057916;28;20044;-73
2022/12/05 04:49:55;;;;;;;45.17;28.33;;;4.90;99.90;;;;;;5096012;28;20155;-73
2022/12/05 04:52:21;;;;;;;48.37;29.67;;;4.90;99.90;;;;;;5048440;28;20055;-73
2022/12/05 04:55:06;;;;;;;49.35;29.02;;;4.90;99.90;;;;;;5052419;28;20068;-73
2022/12/05 04:58:12;;;;;;;49.58;30.23;;;4.90;99.90;;;;;;5064260;28;20724;-73
2022/12/05 05:00:46;;;;;;;50.25;30.63;;;4.90;99.90;;;;;;5079310;28;20059;-72
2022/12/05 05:03:27;;;;;;;48.92;29.70;;;4.90;99.90;;;;;;5066938;28;20041;-72
2022/12/05 05:05:55;;;;;;;49.67;29.52;;;4.90;99.90;;;;;;5049707;28;20045;-72
2022/12/05 05:08:23;;;;;;;49.80;29.08;;;4.90;99.90;;;;;;5065712;28;20075;-72
2022/12/05 05:11:28;;;;;;;53.72;30.88;;;4.90;99.90;;;;;;5067935;28;20036;-73
2022/12/05 05:13:55;;;;;;;47.55;28.88;;;5.00;99.90;;;;;;5044492;28;20476;-72
2022/12/05 05:16:26;;;;;;;51.23;29.57;;;4.90;99.90;;;;;;5082080;28;20052;-72
2022/12/05 05:18:51;;;;;;;50.85;31.27;;;4.90;99.90;;;;;;5059248;28;20047;-72
2022/12/05 05:21:19;;;;;;;50.03;29.05;;;4.90;99.90;;;;;;5063906;28;20050;-72
2022/12/05 05:23:45;;;;;;;;;;;4.90;99.90;;;;;;5059009;28;20055;-73
2022/12/05 05:26:14;;;;;;;49.97;30.88;;;4.90;99.90;;;;;;5057307;28;19928;-72
2022/12/05 05:28:40;;;;;;;52.42;30.80;;;4.90;99.90;;;;;;5065029;28;20118;-73
2022/12/05 05:31:06;;;;;;;52.95;31.02;;;4.90;99.90;;;;;;5059046;28;20063;-72
2022/12/05 05:33:33;;;;;;;51.38;30.95;;;4.90;99.90;;;;;;5061156;28;20037;-73
2022/12/05 05:36:06;;;;;;;51.35;30.38;;;4.90;99.90;;;;;;5061479;28;20049;-72
2022/12/05 05:38:41;;;;;;;49.63;28.73;;;4.90;99.90;;;;;;5066534;28;20063;-72
2022/12/05 05:41:13;;;;;;;47.35;30.85;;;4.90;99.90;;;;;;5053482;28;20051;-72
2022/12/05 05:43:39;;;;;;;53.92;30.67;;;4.90;99.90;;;;;;5057139;28;20059;-73
2022/12/05 05:46:05;;;;;;;48.55;30.50;;;4.90;99.90;;;;;;5058316;28;20900;-73
2022/12/05 05:48:30;;;;;;;51.15;30.20;;;4.90;99.90;;;;;;5067534;28;20132;-73
2022/12/05 05:51:01;;;;;;;43.83;27.52;;;4.90;99.90;;;;;;5060035;28;20925;-73
2022/12/05 05:53:27;;;;;;;45.13;29.20;;;4.90;99.90;;;;;;5051368;28;20152;-72
2022/12/05 05:55:52;;;;;;;44.00;27.83;;;5.00;99.90;;;;;;5057247;28;20144;-72
2022/12/05 05:58:18;;;;;;;44.45;28.05;;;4.90;99.90;;;;;;5063097;28;20075;-72
2022/12/05 06:00:44;;;;;;;43.70;27.85;;;5.00;99.90;;;;;;5061894;28;20127;-72
2022/12/05 06:03:13;;;;;;;42.17;28.20;;;5.00;99.90;;;;;;5056083;28;20072;-73
2022/12/05 06:05:38;;;;;;;40.33;26.45;;;5.00;99.90;;;;;;5051916;28;20056;-72
2022/12/05 06:08:04;;;;;;;40.63;25.95;;;4.90;99.90;;;;;;5068509;28;20048;-72
2022/12/05 06:10:30;;;;;;;38.30;25.45;;;5.00;99.90;;;;;;5062243;28;20041;-72
2022/12/05 06:12:57;;;;;;;37.65;25.08;;;5.00;99.90;;;;;;5051619;28;20045;-72
2022/12/05 06:15:23;;;;;;;39.75;25.60;;;4.90;99.90;;;;;;5064636;28;20164;-73
2022/12/05 06:17:48;;;;;;;38.58;24.83;;;5.00;99.90;;;;;;5060226;28;20049;-73
2022/12/05 06:20:14;;;;;;;37.75;24.13;;;5.00;99.90;;;;;;5058672;28;20067;-73
2022/12/05 06:22:40;;;;;;;37.90;24.15;;;5.00;99.90;;;;;;5066611;28;20372;-73
2022/12/05 06:25:06;;;;;;;34.58;22.77;;;5.00;99.90;;;;;;5073280;28;20048;-72
2022/12/05 06:27:32;;;;;;;35.85;23.00;;;5.10;99.90;;;;;;5059967;28;20045;-72
2022/12/05 06:29:58;;;;;;;33.50;22.80;;;5.10;99.90;;;;;;5066714;28;20040;-72
2022/12/05 06:32:26;;;;;;;35.13;22.90;;;5.00;99.90;;;;;;5083828;28;20417;-73
2022/12/05 06:34:51;;;;;;;;;;;5.10;99.90;;;;;;5052693;28;20503;-73
2022/12/05 06:37:17;;;;;;;35.40;22.85;;;5.10;99.90;;;;;;5066522;28;19932;-73
2022/12/05 06:39:43;;;;;;;33.80;23.88;;;5.10;99.90;;;;;;5067544;28;20045;-73
2022/12/05 06:42:08;;;;;;;33.83;22.83;;;5.10;99.90;;;;;;5061384;28;20041;-71
2022/12/05 06:44:34;;;;;;;33.40;22.25;;;5.10;99.90;;;;;;5062580;28;20041;-73
2022/12/05 06:46:59;;;;;;;30.90;22.00;;;5.10;99.90;;;;;;5066716;28;20055;-73
2022/12/05 06:49:31;;;;;;;33.08;22.63;;;5.10;99.90;;;;;;5074618;28;20147;-73
2022/12/05 06:51:57;;;;;;;30.52;21.48;;;5.10;99.90;;;;;;5060017;28;20102;-72
2022/12/05 06:54:23;;;;;;;32.50;21.63;;;5.10;99.90;;;;;;5082695;28;20101;-72
2022/12/05 06:56:49;;;;;;;32.28;22.23;;;5.10;99.90;;;;;;5075549;28;20057;-69
2022/12/05 06:59:15;;;;;;;30.17;21.13;;;5.10;99.90;;;;;;5058475;28;20119;-72
2022/12/05 07:01:45;;;;;;;31.42;20.88;;;5.10;99.90;;;;;;5063479;28;20044;-72
2022/12/05 07:04:16;;;;;;;30.10;20.75;;;5.10;99.90;;;;;;5055026;28;20045;-72
2022/12/05 07:06:44;;;;;;;30.20;20.50;;;5.10;99.90;;;;;;5052886;28;21405;-72
2022/12/05 07:09:10;;;;;;;31.98;20.92;;;5.10;99.90;;;;;;5067549;28;20036;-72
2022/12/05 07:11:36;;;;;;;31.83;21.88;;;5.10;99.90;;;;;;5066071;28;20042;-72
2022/12/05 07:14:04;;;;;;;34.35;21.60;;;5.10;99.90;;;;;;5079008;28;20119;-72
2022/12/05 07:16:30;;;;;;;35.38;21.55;;;5.10;99.90;;;;;;5067656;28;20040;-72
2022/12/05 07:18:56;;;;;;;32.78;21.27;;;5.10;99.90;;;;;;5064836;28;20530;-72
2022/12/05 07:21:22;;;;;;;32.75;21.15;;;5.10;99.90;;;;;;5062514;28;20040;-71
2022/12/05 07:23:51;;;;;;;33.90;20.77;;;5.10;99.90;;;;;;5057289;28;20053;-72
2022/12/05 07:26:20;;;;;;;34.83;21.42;;;5.10;99.90;;;;;;5060947;28;20052;-72
2022/12/05 07:28:47;;;;;;;36.72;21.75;;;5.10;99.90;;;;;;5064297;28;20554;-72
2022/12/05 07:31:16;;;;;;;34.83;21.52;;;5.10;99.90;;;;;;5085973;28;20049;-71
2022/12/05 07:33:42;;;;;;;36.38;21.85;;;5.10;99.90;;;;;;5065009;28;20044;-72
2022/12/05 07:36:11;;;;;;;36.85;22.83;;;5.10;99.90;;;;;;5063265;28;20106;-72
2022/12/05 07:38:38;;;;;;;34.78;21.77;;;5.20;99.90;;;;;;5063964;28;20374;-71
2022/12/05 07:41:06;;;;;;;33.30;19.55;;;5.10;99.90;;;;;;5065172;28;20678;-72
2022/12/05 07:43:32;;;;;;;33.47;20.95;;;5.10;99.90;;;;;;5058285;28;20067;-72
2022/12/05 07:46:06;;;;;;;34.10;20.38;;;5.20;99.90;;;;;;5062364;28;20381;-72
2022/12/05 07:48:32;;;;;;;31.90;19.45;;;5.20;99.90;;;;;;5085770;28;20123;-72
2022/12/05 07:51:00;;;;;;;30.05;19.13;;;5.20;99.90;;;;;;5073139;28;20074;-72
2022/12/05 07:53:26;;;;;;;27.45;18.25;;;5.10;99.90;;;;;;5061936;28;20162;-71
2022/12/05 07:55:52;;;;;;;23.90;15.93;;;5.20;99.90;;;;;;5063386;28;20040;-72
2022/12/05 07:58:17;;;;;;;25.35;16.10;;;5.20;99.90;;;;;;5052009;28;20082;-71
2022/12/05 08:00:43;;;;;;;23.13;14.35;;;5.20;99.90;;;;;;5064210;28;20045;-71
2022/12/05 08:03:09;;;;;;;20.23;13.10;;;5.20;99.90;;;;;;5052612;28;20032;-71
2022/12/05 08:05:36;;;;;;;18.88;11.90;;;5.20;99.90;;;;;;5058445;28;20041;-71
2022/12/05 08:08:02;;;;;;;16.80;11.63;;;5.30;99.90;;;;;;5055659;28;20473;-71
2022/12/05 08:10:27;;;;;;;15.15;9.63;;;5.30;99.90;;;;;;5061640;28;20083;-71
2022/12/05 08:12:53;;;;;;;14.75;10.63;;;5.30;99.90;;;;;;5060496;28;20048;-71
2022/12/05 08:15:19;;;;;;;13.90;9.93;;;5.30;99.90;;;;;;5082574;28;20124;-71
2022/12/05 08:17:45;;;;;;;12.35;8.73;;;5.30;99.90;;;;;;5062885;28;20041;-72
2022/12/05 08:20:11;;;;;;;12.38;9.20;;;5.40;99.90;;;;;;5061637;28;20064;-72
2022/12/05 08:22:37;;;;;;;13.38;8.82;;;5.30;99.90;;;;;;5072463;28;20128;-72
2022/12/05 08:25:03;;;;;;;12.10;8.63;;;5.30;99.90;;;;;;5062735;28;20134;-73
2022/12/05 08:27:29;;;;;;;12.20;9.00;;;5.40;99.90;;;;;;5057550;28;20092;-73
2022/12/05 08:29:54;;;;;;;11.55;8.02;;;5.40;99.90;;;;;;5059126;28;20068;-72
2022/12/05 08:32:20;;;;;;;9.73;7.75;;;5.40;99.90;;;;;;5064686;28;20454;-72
2022/12/05 08:34:46;;;;;;;11.70;8.40;;;5.40;99.90;;;;;;5063282;28;20085;-72
2022/12/05 08:37:11;;;;;;;10.43;8.00;;;5.40;99.90;;;;;;5070198;28;20055;-72
2022/12/05 08:39:37;;;;;;;11.43;8.43;;;5.40;99.90;;;;;;5068384;28;20107;-72
2022/12/05 08:42:03;;;;;;;11.13;8.27;;;5.50;99.90;;;;;;5069596;28;20453;-72
2022/12/05 08:44:28;;;;;;;10.07;8.10;;;5.40;99.90;;;;;;5064612;28;20056;-71
2022/12/05 08:46:54;;;;;;;11.38;8.30;;;5.40;99.90;;;;;;5069505;28;20048;-72
2022/12/05 08:49:20;;;;;;;12.95;7.90;;;5.40;99.90;;;;;;5069325;28;20045;-72
2022/12/05 08:51:45;;;;;;;9.98;8.25;;;5.40;99.90;;;;;;5071269;28;20040;-71
2022/12/05 08:54:11;;;;;;;9.95;8.35;;;5.40;99.90;;;;;;5071400;28;20048;-71
2022/12/05 08:56:37;;;;;;;12.10;8.38;;;5.40;99.90;;;;;;5067998;28;20476;-71
2022/12/05 08:59:03;;;;;;;10.73;8.35;;;5.50;99.90;;;;;;5065476;28;20083;-72
2022/12/05 09:01:30;;;;;;;11.93;9.00;;;5.50;99.90;;;;;;5068663;28;20055;-71
2022/12/05 09:04:00;;;;;;;11.50;9.27;;;5.50;99.90;;;;;;5069536;28;20123;-71
2022/12/05 09:06:27;;;;;;;11.93;9.13;;;5.50;99.90;;;;;;5070520;28;20083;-73
2022/12/05 09:08:58;;;;;;;13.02;8.93;;;5.50;99.90;;;;;;5102491;28;20044;-71
2022/12/05 09:11:27;;;;;;;10.63;8.77;;;5.50;99.90;;;;;;5069636;28;20041;-71
2022/12/05 09:13:54;;;;;;;11.05;9.18;;;5.50;99.90;;;;;;5070132;28;20044;-71
2022/12/05 09:16:22;;;;;;;10.77;9.18;;;5.50;99.90;;;;;;5063569;28;20045;-71
2022/12/05 09:18:49;;;;;;;13.23;9.52;;;5.50;99.90;;;;;;5061064;28;20036;-72
2022/12/05 09:21:18;;;;;;;11.57;9.38;;;5.50;99.90;;;;;;5068173;28;20133;-71
2022/12/05 09:23:43;;;;;;;11.90;9.27;;;5.50;99.90;;;;;;5070850;28;20032;-71
2022/12/05 09:26:11;;;;;;;11.50;9.30;;;5.50;99.90;;;;;;5069847;28;20045;-71
2022/12/05 09:28:38;;;;;;;11.85;10.15;;;5.50;99.90;;;;;;5068966;28;20040;-71
2022/12/05 09:31:09;;;;;;;12.10;9.70;;;5.50;99.90;;;;;;5064512;28;20029;-71
2022/12/05 09:33:36;;;;;;;11.90;9.95;;;5.50;99.90;;;;;;5068355;28;20157;-71
2022/12/05 09:36:07;;;;;;;14.95;9.70;;;5.50;99.90;;;;;;5067518;28;20044;-71
2022/12/05 09:38:33;;;;;;;15.05;10.40;;;5.50;99.90;;;;;;5062777;28;20040;-71
2022/12/05 09:44:38;;;;;;;12.15;10.85;;;5.50;99.90;;;;;;5060476;28;20045;-73
2022/12/05 09:47:10;;;;;;;14.23;11.13;;;5.50;99.90;;;;;;5095639;28;20381;-71
2022/12/05 09:49:46;;;;;;;16.00;11.63;;;5.40;99.90;;;;;;5082959;28;20855;-69
2022/12/05 09:52:26;;;;;;;14.38;12.20;;;5.50;99.90;;;;;;5055544;28;20063;-69
2022/12/05 09:54:52;;;;;;;15.65;12.07;;;5.50;99.90;;;;;;5047638;28;20127;-69
2022/12/05 09:57:34;;;;;;;15.60;12.02;;;5.50;99.90;;;;;;5065044;28;20060;-69
2022/12/05 10:00:03;;;;;;;16.33;12.48;;;5.50;99.90;;;;;;5062410;28;20052;-70
2022/12/05 10:02:41;;;;;;;16.35;12.63;;;5.50;99.90;;;;;;5067919;28;20029;-70
2022/12/05 10:05:24;;;;;;;15.02;12.75;;;5.50;99.90;;;;;;5066516;28;20041;-72
2022/12/05 10:08:02;;;;;;;15.73;12.32;;;5.60;99.90;;;;;;5064664;28;20053;-74
2022/12/05 10:10:33;;;;;;;16.88;12.40;;;5.60;99.90;;;;;;5066332;28;20070;-72
2022/12/05 10:13:15;;;;;;;14.52;12.38;;;5.60;99.90;;;;;;5068450;28;20044;-72
2022/12/05 10:15:54;;;;;;;15.68;12.60;;;5.60;99.90;;;;;;5067374;28;20098;-71
2022/12/05 10:18:38;;;;;;;15.82;11.85;;;5.50;99.90;;;;;;5066465;28;20042;-73
2022/12/05 10:21:15;;;;;;;16.73;12.27;;;5.50;99.90;;;;;;5063453;28;20041;-71
2022/12/05 10:23:54;;;;;;;16.80;12.40;;;5.50;99.90;;;;;;5096738;28;20090;-71
2022/12/05 10:26:22;;;;;;;17.42;12.70;;;5.50;99.90;;;;;;5083587;28;20046;-70
2022/12/05 10:29:13;;;;;;;16.25;12.63;;;5.50;99.90;;;;;;5090401;28;20060;-69
2022/12/05 10:31:40;;;;;;;15.82;12.35;;;5.50;99.90;;;;;;5062070;28;20506;-68
2022/12/05 10:34:31;;;;;;;19.85;12.27;;;5.50;99.90;;;;;;5067061;28;20385;-70
2022/12/05 10:37:06;;;;;;;14.90;11.52;;;5.50;99.90;;;;;;5051563;28;20561;-69
2022/12/05 10:39:32;;;;;;;18.38;12.40;;;5.50;99.90;;;;;;5068262;28;20051;-68
2022/12/05 10:41:58;;;;;;;17.25;11.73;;;5.50;99.90;;;;;;5065574;28;20044;-70
2022/12/05 10:44:24;;;;;;;16.35;12.18;;;5.40;99.90;;;;;;5068085;28;20044;-69
2022/12/05 10:46:50;;;;;;;16.08;11.77;;;5.40;99.90;;;;;;5074834;28;20394;-71
2022/12/05 10:49:16;;;;;;;15.35;11.65;;;5.40;99.90;;;;;;5065229;28;20045;-70
2022/12/05 10:51:42;;;;;;;15.50;11.65;;;5.40;99.90;;;;;;5065196;28;20066;-69
2022/12/05 10:54:19;;;;;;;16.58;12.20;;;5.40;99.90;;;;;;5067514;28;20041;-70
2022/12/05 10:56:50;;;;;;;16.67;12.15;;;5.40;99.90;;;;;;5095397;28;20455;-68
2022/12/05 10:59:48;;;;;;;16.42;11.73;;;5.40;99.90;;;;;;5061774;28;20253;-77
2022/12/05 11:02:26;;;;;;;15.73;11.70;;;5.40;99.90;;;;;;5044801;28;20559;-77
2022/12/05 11:04:53;;;;;;;18.80;11.55;;;5.40;99.90;;;;;;5065461;28;20037;-77
2022/12/05 11:07:32;;;;;;;15.50;10.93;;;5.40;99.90;;;;;;5059545;28;20064;-78
2022/12/05 11:10:00;;;;;;;15.88;11.00;;;5.40;99.90;;;;;;5093446;28;20052;-80
2022/12/05 11:12:37;;;;;;;14.05;10.95;;;5.40;99.90;;;;;;5072548;28;20195;-74
2022/12/05 11:15:15;;;;;;;16.10;11.15;;;5.40;99.90;;;;;;5061413;28;20055;-72
2022/12/05 11:17:41;;;;;;;16.10;11.18;;;5.40;99.90;;;;;;5058635;28;20041;-74
2022/12/05 11:20:19;;;;;;;14.70;10.98;;;5.40;99.90;;;;;;5063059;28;20033;-73
2022/12/05 11:22:53;;;;;;;15.68;10.80;;;5.40;99.90;;;;;;5062240;28;20044;-80
2022/12/05 11:25:33;;;;;;;13.18;10.13;;;5.40;99.90;;;;;;5056896;28;20123;-76
2022/12/05 11:28:20;;;;;;;16.48;10.68;;;5.40;99.90;;;;;;5056037;28;20052;-73
2022/12/05 11:31:01;;;;;;;14.05;10.73;;;5.40;99.90;;;;;;5060360;28;20036;-74
2022/12/05 11:33:33;;;;;;;14.00;9.82;;;5.40;99.90;;;;;;5078582;28;20051;-74
2022/12/05 11:36:09;;;;;;;16.85;11.85;;;5.40;99.90;;;;;;5062663;28;20062;-69
2022/12/05 11:38:35;;;;;;;13.50;9.80;;;5.40;99.90;;;;;;5067604;28;20044;-74
2022/12/05 11:41:22;;;;;;;14.77;10.93;;;5.40;99.90;;;;;;5063975;28;20226;-74
2022/12/05 11:44:26;;;;;;;17.05;11.38;;;5.40;99.90;;;;;;5052282;28;20052;-73
2022/12/05 11:47:06;;;;;;;17.73;11.18;;;5.40;99.90;;;;;;5061908;28;20052;-75
2022/12/05 11:49:35;;;;;;;18.40;10.90;;;5.40;99.90;;;;;;5067237;28;20131;-75
2022/12/05 11:52:22;;;;;;;15.75;10.63;;;5.40;99.90;;;;;;5073745;28;20044;-73
2022/12/05 11:55:22;;;;;;;16.58;10.20;;;5.40;99.90;;;;;;5066269;28;20063;-75
2022/12/05 11:57:58;;;;;;;15.50;10.27;;;5.40;99.90;;;;;;5063193;28;20060;-75
2022/12/05 12:00:38;;;;;;;15.38;10.88;;;5.40;99.90;;;;;;5062859;28;20446;-75
2022/12/05 12:03:35;;;;;;;14.77;9.75;;;5.40;99.90;;;;;;5062477;28;20102;-73
2022/12/05 12:06:10;;;;;;;;;;;5.40;99.90;;;;;;5069342;28;20544;-76
2022/12/05 12:08:59;;;;;;;14.18;9.43;;;5.30;99.90;;;;;;5064713;28;19920;-74
2022/12/05 12:11:32;;;;;;;14.35;9.52;;;5.40;99.90;;;;;;5057283;28;20466;-74
2022/12/05 12:14:07;;;;;;;15.15;9.07;;;5.40;99.90;;;;;;5065155;28;20040;-69
2022/12/05 12:16:38;;;;;;;12.63;9.77;;;5.40;99.90;;;;;;5067846;28;20040;-69
2022/12/05 12:19:24;;;;;;;14.07;9.40;;;5.40;99.90;;;;;;5072613;28;20048;-71
2022/12/05 12:22:08;;;;;;;12.43;9.25;;;5.40;99.90;;;;;;5086711;28;20483;-71
2022/12/05 12:24:43;;;;;;;14.45;9.50;;;5.40;99.90;;;;;;5068008;28;20445;-70
2022/12/05 12:27:36;;;;;;;14.70;9.60;;;5.40;99.90;;;;;;5078688;28;20040;-69
2022/12/05 12:30:23;;;;;;;15.40;9.88;;;5.40;99.90;;;;;;5071640;28;20048;-70
2022/12/05 12:32:52;;;;;;;14.75;9.65;;;5.40;99.90;;;;;;5067888;28;20562;-70
2022/12/05 12:35:26;;;;;;;13.13;9.23;;;5.40;99.90;;;;;;5071185;28;20518;-69
2022/12/05 12:38:18;;;;;;;13.48;9.30;;;5.40;99.90;;;;;;5065296;28;20044;-69
2022/12/05 12:40:57;;;;;;;11.63;8.80;;;5.40;99.90;;;;;;5087419;28;20037;-69
2022/12/05 12:44:00;;;;;;;13.73;9.13;;;5.40;99.90;;;;;;5070564;28;20039;-71
2022/12/05 12:46:51;;;;;;;11.63;8.68;;;5.40;99.90;;;;;;5050569;28;20088;-69
2022/12/05 12:49:36;;;;;;;11.90;8.85;;;5.40;99.90;;;;;;5062743;28;20094;-69
2022/12/05 12:52:17;;;;;;;11.50;8.68;;;5.40;99.90;;;;;;5074066;28;20036;-70
2022/12/05 12:54:49;;;;;;;12.02;8.50;;;5.40;99.90;;;;;;5071259;28;20699;-69
2022/12/05 12:57:32;;;;;;;11.38;8.05;;;5.40;99.90;;;;;;5069840;28;20052;-70
2022/12/05 13:00:08;;;;;;;12.10;8.77;;;5.50;99.90;;;;;;5070902;28;20091;-71
2022/12/05 13:02:44;;;;;;;12.00;8.63;;;5.40;99.90;;;;;;5085559;28;20525;-69
2022/12/05 13:05:18;;;;;;;10.65;8.23;;;5.50;99.90;;;;;;5072974;28;20036;-70
2022/12/05 13:07:52;;;;;;;9.85;8.32;;;5.50;99.90;;;;;;5071723;28;20055;-70
2022/12/05 13:10:32;;;;;;;13.18;9.65;;;5.50;99.90;;;;;;5081343;28;20082;-71
2022/12/05 13:13:01;;;;;;;12.93;9.77;;;5.50;99.90;;;;;;5062471;28;20483;-70
2022/12/05 13:15:48;;;;;;;13.32;9.32;;;5.50;99.90;;;;;;5076601;28;20514;-70